Wijitsuntorn, Tanat
ThailandManBorn 19872019 – 2026Runner id 1263358
Events
32
26 race dates
Best pace
14.481
km/h · 2025
Best finish
1st
of 708 · 2022
Distance raced
2,838
km · splits not double-counted
Pace over time
31 of 32 results · km/h
Pace over time: 28 races and 3 splits from 2019 to 2026, ranging from 5.43 to 14.75 kilometres per hour, where higher is faster. A second, age-graded series is drawn above it; the gap between the two is the age credit.
- Actual pace
- Age-graded pace
- Split of a race already plotted
1 result is not on this chart. They are counted in every statistic above and listed in full below — backyard ultras carry a lap count instead of a pace, which is the number that means something in that format.
Results
| Date | Event | Distance | Result | Pace km/h | Placing |
|---|---|---|---|---|---|
| 2019-04-14 | 50km | 3:58:02 h | 12.603 | 19/192 | |
| 2020-01-05 | Ultra Park Run Thailand 100 kmThailand | 100km | 8:42:33 h | 11.482 | 5/235 |
| 2020-12-19 | Khaoyai 100K Ultra Road MarathonThailand | 100km | 8:27:03 h | 11.833 | 1/254 |
| 2021-12-18 | Khaoyai 100K Ultra Road MarathonThailand | 100km | 8:53:45 h | 11.241 | 6/630 |
| 2022-06-05 | Khaokho MarathonThailand | 45km | 3:42:33 h | 12.132 | 13/1390 |
| 2022-06-25 | Cnx 100K Ultra MarathonThailand | 100km | 8:34:15 h | 11.667 | 1/207 |
| 2022-07-23 | PhutThaMonThon Backyard UltraThailand | 27h | 181.062 km | 27laps | 1/82 |
| 2022-08-27 | 100km | 8:07:29 h | 12.308 | 109/198 | |
| 2022-08-27 | 100 km Berlin Bernau, combined IAU & WMA race - 50km splitGermanyIAU BronzeSplit of a longer race in this career; not counted again in the distance total | 50km | 3:40:53 h | 13.582 | 86/248 |
| 2022-08-27 | 100 km Berlin Bernau, combined IAU & WMA race - 50mi splitGermanyIAU BronzeSplit of a longer race in this career; not counted again in the distance total | 50mi | 6:40:02 h | 12.069 | 114/249 |
| 2022-11-19 | Ultra Park Run Thailand 100 kmThailand | 100km | 7:45:58 h | 12.876 | 2/72 |
| 2022-12-17 | Khaoyai 100K Ultra Road MarathonThailand | 100km | 7:49:28 h | 12.780 | 1/708 |
| 2023-01-08 | 50km | 6:23:04 h | 7.832 | 17/417 | |
| 2023-03-05 | Phuket 100K Ultra MarathonThailand | 100km | 7:55:51 h | 12.609 | 1/147 |
| 2023-10-07 | CNX 100K Ultra MarathonThailand | 100km | 8:05:54 h | 12.348 | 2/345 |
| 2023-11-11 | 100km | 7:56:00 h | 12.605 | 2/20 | |
| 2023-11-18 | Sisaket Ultra 60Thailand | 60km | 4:47:03 h | 12.541 | 1/41 |
| 2023-12-16 | Khaoyai 100K Ultra Road MarathonThailand | 100km | 8:33:36 h | 11.682 | 3/647 |
| 2024-03-02 | Phuket 60K Ultra MarathonThailand | 60km | 4:41:48 h | 12.775 | 3/69 |
| 2024-06-16 | Thailand 100K Ultra MarathonThailand | 100km | 8:45:20 h | 11.421 | 4/371 |
| 2024-07-07 | Brooks Run For The WildThailand | 50km | 9:12:17 h | 5.432 | 14/98 |
| 2024-10-20 | Khaoyai X TrailThailand | 50km | 5:20:34 h | 9.358 | 3/235 |
| 2024-12-07 | 100km | 8:55:49 h | 11.198 | 34/54 | |
| 2024-12-07 | 100km | 8:55:49 h | 11.198 | 97/137 | |
| 2024-12-07 | 100km | 8:55:49 h | 11.198 | 91/121 | |
| 2024-12-14 | Khaoyai 100K Ultra Road MarathonThailand | 100km | 9:12:22 h | 10.862 | 4/714 |
| 2025-08-03 | Thailand 50K Ultra MarathonThailand | 50km | 3:27:10 h | 14.481 | 2/381 |
| 2025-09-27 | Chiangmai 24 Hr ChallengeThailand | 24h | 178.060 km | 7.419 | 13/76 |
| 2025-11-22 | 100km | 7:58:02 h | 12.551 | 6/26 | |
| 2026-01-17 | Thailand 24HThailand | 24h | 201.760 km | 8.407 | 3/90 |
| 2026-05-23 | 24h | 161.635 km | 6.735 | 70/81 | |
| 2026-05-23 | IAU 24h Asia and Oceania Championships - 12h SplitJapanIAU BronzeSplit of a longer race in this career; not counted again in the distance total | 12h | 130.000 km | 10.833 | 11/81 |